Latest Weather Observations for Tuggeranong

IDN60801

Issued at 8:02 pm EST Thursday 28 May 2015 (issued every 30 minutes, with the page automatically refreshed every 10 minutes)

About weather observations | Map of weather stations | Latest weather observations for NSW | Other Formats
Station Details ID: 070339 Name: TUGGERANONG (ISABELLA PLAINS) AWS Lat: -35.42 Lon: 149.09 Height: 586.7 m
Data from the previous 72 hours. | See also: Recent months at Tuggeranong
Date/Time
EST
Temp
°C
App
Temp
°C
Dew
Point
Rel
Hum
%
Delta-T
°C
Wind Press
QNH
hPa
Press
MSL
hPa
Rain
since 9 am
mm
Dir
 
Spd
km/h
Gust
km/h
Spd
kts
Gust
kts
28/08:00pm 10.6 9.6 10.3 98 0.2 SSW 6 7 3 4 1020.0 1020.2 1.2
28/07:30pm 10.7 10.4 10.1 96 0.3 S 2 6 1 3 1020.0 1020.2 1.2
28/07:00pm 10.8 10.8 9.7 93 0.6 CALM 0 0 0 0 1020.3 1020.5 1.2
28/06:30pm 11.2 10.8 9.8 91 0.7 E 2 6 1 3 1020.2 1020.4 1.2
28/06:00pm 11.1 9.9 9.5 90 0.8 NE 6 11 3 6 1020.3 1020.5 1.2
28/05:30pm 11.1 9.7 9.0 87 1.1 ENE 6 7 3 4 1020.2 1020.4 1.2
28/05:00pm 12.0 10.7 9.2 83 1.4 N 6 11 3 6 1020.2 1020.4 1.2
28/04:30pm 12.9 10.7 9.4 79 1.8 N 11 15 6 8 1020.5 1020.7 1.2
28/04:00pm 13.6 11.4 9.5 76 2.2 N 11 19 6 10 1020.5 1020.7 1.2
28/03:30pm 13.7 12.0 9.9 78 2.0 N 9 15 5 8 1020.6 1020.8 1.2
28/03:00pm 13.2 11.5 9.8 80 1.8 N 9 17 5 9 1020.6 1020.8 1.2
28/02:30pm 13.0 10.3 9.1 77 2.0 NNW 13 17 7 9 1020.8 1021.0 1.2
28/02:00pm 13.3 11.2 9.9 80 1.8 NNW 11 15 6 8 1020.9 1021.1 1.2
28/01:30pm 12.2 10.1 9.6 84 1.4 NNW 11 17 6 9 1021.4 1021.6 1.2
28/01:00pm 11.7 9.5 9.4 86 1.2 N 11 17 6 9 1021.9 1022.1 1.2
28/12:30pm 11.4 9.5 9.0 85 1.2 NNW 9 17 5 9 1022.1 1022.3 1.2
28/12:00pm 10.4 9.1 9.3 93 0.6 SW 6 7 3 4 1022.6 1022.9 1.2
28/11:30am 10.0 9.8 9.2 95 0.4 CALM 0 0 0 0 1023.1 1023.3 1.0
28/11:00am 9.2 8.2 8.9 98 0.2 NE 4 7 2 4 1023.6 1023.8 1.0
28/10:30am 8.7 8.4 8.6 99 0.0 CALM 0 0 0 0 1024.0 1024.3 0.8
28/10:00am 8.1 7.6 8.0 99 0.0 CALM 0 0 0 0 1024.4 1024.7 0.6
28/09:30am 7.6 6.3 7.5 99 0.0 WNW 4 9 2 5 1024.3 1024.6 0.0
28/09:00am 7.8 6.1 7.7 99 0.0 SW 6 7 3 4 1024.3 1024.6 0.0
28/08:30am 6.7 5.9 6.6 99 0.0 CALM 0 0 0 0 1024.0 1024.3 0.0
28/08:00am 6.2 5.3 6.1 99 0.0 CALM 0 0 0 0 1024.2 1024.5 0.0
28/07:30am 6.1 5.2 6.0 99 0.0 CALM 0 0 0 0 1024.0 1024.3 0.0
28/07:00am 5.8 4.8 5.7 99 0.0 CALM 0 0 0 0 1023.9 1024.2 0.0
28/06:30am 5.6 4.6 5.5 99 0.0 CALM 0 0 0 0 1024.0 1024.3 0.0
28/06:00am 5.4 4.4 5.4 100 0.0 CALM 0 0 0 0 1023.6 1023.8 0.0
28/05:30am 5.0 3.5 5.0 100 0.0 NNE 2 7 1 4 1023.2 1023.4 0.0
28/05:00am 4.4 3.1 4.3 99 0.0 CALM 0 0 0 0 1023.0 1023.2 0.0
28/04:30am 3.9 2.5 3.8 99 0.0 CALM 0 0 0 0 1023.0 1023.2 0.0
28/04:00am 3.6 2.2 3.5 99 0.0 CALM 0 0 0 0 1023.0 1023.2 0.0
28/03:30am 3.2 1.7 3.1 99 0.0 CALM 0 0 0 0 1023.0 1023.2 0.0
28/03:00am 3.2 1.7 2.9 98 0.1 CALM 0 0 0 0 1023.1 1023.3 0.0
28/02:30am 3.3 1.7 2.4 94 0.4 CALM 0 0 0 0 1023.1 1023.3 0.0
28/02:00am 5.0 3.1 4.7 98 0.1 ENE 4 6 2 3 1023.3 1023.5 0.0
28/01:30am 5.3 2.8 4.6 95 0.3 E 7 9 4 5 1023.3 1023.5 0.0
28/01:00am 6.0 3.6 5.3 95 0.3 E 7 9 4 5 1023.4 1023.6 0.0
28/12:30am 6.2 3.9 5.6 96 0.3 ENE 7 11 4 6 1023.4 1023.6 0.0
28/12:00am 6.4 4.9 5.2 92 0.5 E 2 6 1 3 1023.4 1023.6 0.0
 
Date/Time
EST
Temp
°C
App
Temp
°C
Dew
Point
Rel
Hum
%
Delta-T
°C
Wind Press
QNH
hPa
Press
MSL
hPa
Rain
since 9 am
mm
Dir
 
Spd
km/h
Gust
km/h
Spd
kts
Gust
kts
27/11:30pm 7.3 4.8 6.4 94 0.4 ENE 9 13 5 7 1023.3 1023.5 0.0
27/11:00pm 7.0 5.9 5.3 89 0.8 CALM 0 7 0 4 1023.4 1023.6 0.0
27/10:30pm 8.1 5.5 6.2 88 0.9 E 9 13 5 7 1023.5 1023.7 0.0
27/10:00pm 8.3 6.3 6.1 86 1.0 ENE 6 7 3 4 1023.7 1023.9 0.0
27/09:30pm 8.9 7.2 6.0 82 1.4 N 4 7 2 4 1023.6 1023.8 0.0
27/09:00pm 8.7 6.5 6.3 85 1.1 NNW 7 9 4 5 1023.8 1024.0 0.0
27/08:30pm 9.2 7.5 5.9 80 1.6 ENE 4 7 2 4 1023.8 1024.0 0.0
27/08:00pm 10.6 8.7 6.7 77 1.9 N 6 7 3 4 1023.7 1023.9 0.0
27/07:30pm 11.5 9.5 7.2 75 2.1 NE 7 11 4 6 1023.5 1023.7 0.0
27/07:00pm 11.7 9.3 6.8 72 2.4 NW 9 13 5 7 1023.1 1023.3 0.0
27/06:30pm 12.6 9.5 7.1 69 2.7 NW 13 20 7 11 1022.9 1023.1 0.0
27/06:00pm 12.7 10.3 7.0 68 2.8 WNW 9 15 5 8 1022.7 1023.0 0.0
27/05:30pm 12.6 10.2 7.1 69 2.7 WNW 9 15 5 8 1022.6 1022.9 0.0
27/05:00pm 13.0 9.8 7.0 67 3.0 WNW 13 17 7 9 1022.3 1022.5 0.0
27/04:30pm 13.7 10.2 7.2 65 3.3 WNW 15 22 8 12 1022.2 1022.4 0.0
27/04:00pm 13.4 9.9 7.4 67 3.0 NW 15 20 8 11 1022.2 1022.4 0.0
27/03:30pm 14.2 10.3 7.3 63 3.5 WNW 17 26 9 14 1022.2 1022.4 0.0
27/03:00pm 15.1 10.9 7.4 60 3.9 WNW 19 26 10 14 1022.3 1022.5 0.0
27/02:30pm 15.1 10.7 7.6 61 3.8 W 20 28 11 15 1022.3 1022.5 0.0
27/02:00pm 14.8 10.4 7.4 61 3.8 W 20 30 11 16 1022.4 1022.6 0.0
27/01:30pm 15.1 11.8 6.4 56 4.4 NW 13 24 7 13 1022.4 1022.6 0.0
27/01:00pm 15.3 12.4 6.3 55 4.5 WNW 11 17 6 9 1022.6 1022.9 0.0
27/12:30pm 14.1 11.3 5.2 55 4.3 NNW 9 11 5 6 1023.3 1023.5 0.0
27/12:00pm 12.8 11.7 5.2 60 3.6 CALM 0 6 0 3 1023.9 1024.2 0.0
27/11:30am 11.0 8.6 4.2 63 3.1 NNW 6 9 3 5 1024.3 1024.6 0.0
27/11:00am 11.1 8.5 4.3 63 3.1 NW 7 11 4 6 1025.0 1025.2 0.0
27/10:30am 10.2 8.3 4.8 69 2.5 WSW 4 9 2 5 1025.2 1025.4 0.0
27/10:00am 8.6 6.9 4.0 73 2.1 S 2 7 1 4 1025.5 1025.8 0.0
27/09:30am 7.4 4.8 3.3 75 1.8 WNW 6 7 3 4 1025.7 1026.0 0.0
27/09:00am 6.1 3.5 3.4 83 1.2 SSW 6 7 3 4 1025.8 1026.1 0.0
27/08:30am 4.4 2.9 3.2 92 0.5 CALM 0 0 0 0 1025.7 1026.0 0.0
27/08:00am 2.0 0.3 1.9 99 0.0 CALM 0 0 0 0 1025.6 1025.9 0.0
27/07:30am 0.7 -1.2 0.3 97 0.2 CALM 0 0 0 0 1025.4 1025.7 0.0
27/07:00am 0.5 -1.5 -0.2 95 0.3 CALM 0 0 0 0 1025.2 1025.4 0.0
27/06:30am 1.5 -1.5 0.8 95 0.3 ENE 6 9 3 5 1024.8 1025.0 0.0
27/06:00am 2.0 -0.9 1.4 96 0.2 ENE 6 7 3 4 1024.5 1024.8 0.0
27/05:30am 1.9 0.1 1.0 94 0.4 CALM 0 0 0 0 1024.3 1024.6 0.0
27/05:00am 2.5 0.7 1.2 91 0.5 CALM 0 0 0 0 1024.0 1024.3 0.0
27/04:30am 3.4 1.7 2.1 91 0.5 CALM 0 0 0 0 1024.0 1024.3 0.0
27/04:00am 3.6 2.0 2.3 91 0.5 CALM 0 0 0 0 1024.5 1024.8 0.0
27/03:30am 3.6 1.9 2.1 90 0.6 CALM 0 0 0 0 1025.0 1025.2 0.0
27/03:00am 4.2 2.2 2.4 88 0.7 E 2 7 1 4 1025.0 1025.2 0.0
27/02:30am 4.1 2.4 2.1 87 0.8 CALM 0 0 0 0 1025.3 1025.5 0.0
27/02:00am 4.0 2.4 2.2 88 0.7 CALM 0 0 0 0 1025.3 1025.5 0.0
27/01:30am 4.1 2.4 2.1 87 0.8 CALM 0 0 0 0 1025.5 1025.8 0.0
27/01:00am 4.1 2.4 2.0 86 0.9 CALM 0 2 0 1 1025.4 1025.7 0.0
27/12:30am 4.3 2.6 2.0 85 0.9 CALM 0 0 0 0 1025.7 1026.0 0.0
27/12:00am 4.3 2.7 2.2 86 0.9 CALM 0 4 0 2 1025.8 1026.1 0.0
 
Date/Time
EST
Temp
°C
App
Temp
°C
Dew
Point
Rel
Hum
%
Delta-T
°C
Wind Press
QNH
hPa
Press
MSL
hPa
Rain
since 9 am
mm
Dir
 
Spd
km/h
Gust
km/h
Spd
kts
Gust
kts
26/11:30pm 4.0 2.3 1.9 86 0.9 CALM 0 0 0 0 1026.1 1026.4 0.0
26/11:00pm 4.1 2.4 1.6 84 1.0 CALM 0 0 0 0 1026.3 1026.6 0.0
26/10:30pm 4.9 3.2 1.7 80 1.3 CALM 0 6 0 3 1026.4 1026.7 0.0
26/10:00pm 6.4 3.7 2.5 76 1.7 ENE 6 7 3 4 1026.2 1026.5 0.0
26/09:30pm 6.6 4.2 2.3 74 1.8 S 4 7 2 4 1026.4 1026.7 0.0
26/09:00pm 6.7 4.0 2.4 74 1.8 ENE 6 11 3 6 1026.9 1027.2 0.0
26/08:30pm 6.7 5.1 2.4 74 1.8 CALM 0 0 0 0 1026.7 1026.9 0.0
26/08:00pm 7.1 4.7 2.0 70 2.2 NNW 4 7 2 4 1026.7 1026.9 0.0
26/07:30pm 6.9 5.1 1.4 68 2.3 CALM 0 0 0 0 1026.7 1026.9 0.0
26/07:00pm 7.9 5.0 1.3 63 2.8 E 6 7 3 4 1026.7 1026.9 0.0
26/06:30pm 8.2 5.1 1.6 63 2.8 ESE 7 9 4 5 1026.6 1026.8 0.0
26/06:00pm 8.9 5.7 0.9 57 3.3 E 7 9 4 5 1026.4 1026.7 0.0
26/05:30pm 9.1 6.1 0.6 55 3.6 NNW 6 7 3 4 1026.2 1026.5 0.0
26/05:00pm 9.8 7.8 -0.4 49 4.2 CALM 0 6 0 3 1026.1 1026.4 0.0
26/04:30pm 10.5 7.3 0.5 50 4.2 NW 7 13 4 7 1026.0 1026.3 0.0
26/04:00pm 11.1 8.0 1.1 50 4.3 NNW 7 11 4 6 1025.9 1026.2 0.0
26/03:30pm 11.8 8.0 -0.4 43 5.1 NW 9 15 5 8 1026.0 1026.3 0.0
26/03:00pm 12.7 8.8 1.1 45 5.1 NW 11 17 6 9 1026.1 1026.4 0.0
26/02:30pm 13.7 10.2 1.0 42 5.6 NNW 9 15 5 8 1026.2 1026.5 0.0
26/02:00pm 14.2 11.0 0.5 39 6.0 NNW 7 15 4 8 1026.6 1026.8 0.0
26/01:30pm 13.5 10.0 1.5 44 5.3 NNW 9 13 5 7 1027.0 1027.3 0.0
26/01:00pm 12.6 9.9 2.7 51 4.5 NNE 6 9 3 5 1027.4 1027.7 0.0
26/12:30pm 12.0 9.4 3.3 55 4.0 SSE 6 7 3 4 1027.8 1028.1 0.0
26/12:00pm 10.7 8.3 2.3 56 3.7 ENE 4 7 2 4 1028.4 1028.7 0.0
26/11:30am 10.0 7.2 2.1 58 3.5 NW 6 9 3 5 1029.1 1029.4 0.0
26/11:00am 8.5 5.7 2.3 65 2.7 NW 6 9 3 5 1029.7 1030.1 0.0
26/10:30am 6.8 4.8 2.1 72 2.0 SSW 2 7 1 4 1030.3 1030.6 0.0
26/10:00am 5.1 2.5 1.2 76 1.6 WNW 4 7 2 4 1030.6 1030.9 0.0
26/09:30am 4.2 2.4 1.2 81 1.2 CALM 0 0 0 0 1030.6 1030.9 0.0
26/09:00am 2.5 0.6 0.6 87 0.7 CALM 0 0 0 0 1030.7 1031.0 0.0
26/08:30am 0.3 -1.7 -0.4 95 0.3 CALM 0 0 0 0 1030.6 1030.9 0.0
26/08:00am -0.9 -3.0 -1.0 99 0.0 CALM 0 0 0 0 1030.6 1030.9 0.0
26/07:30am -3.1 -5.6 -3.8 95 0.1 CALM 0 0 0 0 1030.5 1030.8 0.0
26/07:00am -3.2 -5.7 -4.0 94 0.1 CALM 0 0 0 0 1030.4 1030.7 0.0
26/06:30am -3.0 -5.9 -3.8 94 0.1 ESE 2 7 1 4 1029.9 1030.3 0.0
26/06:00am -2.8 -5.2 -3.5 95 0.1 CALM 0 0 0 0 1029.4 1029.7 0.0
26/05:30am -2.9 -5.4 -3.6 95 0.1 CALM 0 0 0 0 1029.0 1029.3 0.0
26/05:00am -2.7 -5.1 -3.4 95 0.1 CALM 0 0 0 0 1029.1 1029.4 0.0
26/04:30am -2.2 -4.5 -2.7 96 0.1 CALM 0 0 0 0 1029.4 1029.7 0.0
26/04:00am -2.5 -4.9 -3.0 96 0.1 CALM 0 0 0 0 1029.6 1029.9 0.0
26/03:30am -1.8 -4.1 -2.2 97 0.1 CALM 0 0 0 0 1029.6 1029.9 0.0
26/03:00am -1.8 -4.1 -2.4 96 0.1 CALM 0 0 0 0 1030.0 1030.4 0.0
26/02:30am -1.7 -4.0 -2.4 95 0.2 CALM 0 0 0 0 1030.3 1030.6 0.0
26/02:00am -1.2 -3.4 -1.9 95 0.2 CALM 0 0 0 0 1030.2 1030.5 0.0
26/01:30am -1.0 -3.2 -1.8 94 0.2 CALM 0 0 0 0 1030.0 1030.4 0.0
26/01:00am -0.2 -2.3 -0.9 95 0.2 CALM 0 0 0 0 1030.2 1030.5 0.0
26/12:30am 0.0 -2.1 -1.0 93 0.4 CALM 0 0 0 0 1030.3 1030.6 0.0
26/12:00am 1.0 -0.9 0.3 95 0.3 CALM 0 0 0 0 1030.5 1030.8 0.0
 
Date/Time
EST
Temp
°C
App
Temp
°C
Dew
Point
Rel
Hum
%
Delta-T
°C
Wind Press
QNH
hPa
Press
MSL
hPa
Rain
since 9 am
mm
Dir
 
Spd
km/h
Gust
km/h
Spd
kts
Gust
kts
25/11:30pm 1.7 -0.1 1.0 95 0.3 CALM 0 6 0 3 1030.5 1030.8 0.0
25/11:00pm 1.9 0.1 1.0 94 0.3 CALM 0 0 0 0 1030.6 1030.9 0.0
25/10:30pm 3.1 1.5 2.2 94 0.4 CALM 0 0 0 0 1030.6 1030.9 0.0
25/10:00pm 2.8 1.1 2.1 95 0.3 CALM 0 0 0 0 1030.8 1031.1 0.0
25/09:30pm 2.7 1.0 2.0 95 0.3 CALM 0 0 0 0 1030.6 1030.9 0.0
25/09:00pm 2.5 0.8 1.6 94 0.4 CALM 0 0 0 0 1030.8 1031.1 0.0
25/08:30pm 2.7 0.2 1.7 93 0.4 E 4 7 2 4 1030.5 1030.8 0.0

Other Formats:

Comma delimited format used in spreadsheet applications
http://www.bom.gov.au/fwo/IDN60801/IDN60801.94925.axf

JavaScript Object Notation format (JSON) in row-major order
http://www.bom.gov.au/fwo/IDN60801/IDN60801.94925.json